Kirchdorf, Austria
Current Conditions -  °F | °C
As of 12:50 AM on Saturday 20 Dec 2014 (Local Time) from LOWL Reporting Station
Light Rain Light Rain  
Wind Chill: 50°   Ceiling: 5000
Heat Index: 50°   Visibility: 6mi
Dew Point: 45°   Wind: 21mph
Humidity: 82%   Direction: 250°WSW
Pressure: 30.06"   Gusts: 32mph
Location:  47.92°N, 14.13°E
Report Text: LOWL 192250Z AUTO 25018G28KT 9999 -RA FEW040 BKN050 10/07 Q1018 RERA
Loading
Personal Weather Stations






























Interactive Weather Map New forecast layout! Learn more

10-Day Weather Forecast

Advertisements
Track Severe Weather on mobile